OSOK1: Oswego hwy 160

                                SHEF ID:       OSOK1     Oswego hwy 160
STATION TYPE:

PRECIP STAGE RIV-FLOW VOLTAGE BAT-LOAD
in ft cfs volt volt
Ccp-Rev Ccp-Rev Ccp-Rev Ccp-Rev Ccp-Rev
(America/Chicago)
06/12 00:00 0.00 22.58 17160 12.76 12.50
06/12 01:00 0.00 22.10 16411 12.76 12.48
06/12 02:00 0.00 21.56 15579 12.74 12.47
06/12 03:00 0.00 20.99 14712 12.73 12.46
06/12 04:00 0.00 20.40 13830 12.71 12.44
06/12 05:00 0.00 19.81 13002 12.70 12.43
06/12 06:00 0.00 19.21 12207 12.69 12.41
06/12 07:00 0.00 18.65 11474 13.03 12.60
06/12 08:00 0.00 18.11 10775 13.78 13.31
06/12 09:00 0.00 17.62 10148 13.78 13.16
06/12 10:00 0.00 17.19 9604 13.22 12.96
06/12 11:00 0.00 16.81 9064 13.17 12.90
06/12 12:00 0.00 16.48 8584 13.13 12.83
06/12 13:00 0.00 16.18 8155 13.13 12.80
06/12 14:00 0.00 15.91 7775 13.16 12.84
06/12 15:00 0.00 15.68 7455 13.07 12.80
06/12 16:00 0.00 15.47 7168 13.04 12.76
06/12 17:00 0.00 15.26 6883 13.01 12.71
06/12 18:00 0.00 15.08 6632 13.01 12.70
06/12 19:00 0.00 14.90 6370 13.25 12.71
06/12 20:00 0.00 14.74 6140 13.05 12.81
06/12 21:00 0.00 14.58 5914 12.85 12.60
06/12 22:00 ---- ---- ---- ---- ----
06/12 23:00 ---- ---- ---- ---- ----
Data processed at Sat 13Jun2026 02:50 GMT

NOTICE: If you are parsing this page

Please convert to using our Data API. Starting early 2026 we will be migrating to: https://water.usace.army.mil with modern pages rendered in JavaScript. When this migration completes you will no longer be able to scrape this page! CWMSDataAPI (CDA)

Timeseries IDs (TSIDs)

TSIDs used from left to right in the data table
OSWN.Precip-Inc.Total.1Hour.1Hour.Ccp-Rev
OSWN.Stage.Inst.1Hour.0.Ccp-Rev
OSWN.Flow.Inst.1Hour.0.Ccp-Rev
OSWN.Volt-Battery.Inst.1Hour.0.Ccp-Rev
OSWN.Volt-Battery Load.Inst.1Hour.0.Ccp-Rev

                            

All information presented herein is the property of the government of the United States of America and may be revised or deleted at any time without prior notice. Dissemination of this information without the expressed written consent of the Public Affairs Office, Tulsa District U.S. Army Corps of Engineers is strictly prohibited. These data are gathered electronically and, as presented, have NOT undergone any form of quality control. These data are NOT guaranteed to be valid or correct.